x

Neah Bay, - 6nm North Of Cape Flattery, Wa (traffic Separation Lighted Buoy) (46087) Wave Buoy

1:50 - Fri 19th Dec 2014 All times are PST. -8 hours from GMT.

  • Sig Wave height 7.5ft
  • Swell Direction
  • Peak Period 11s
  • Average Period 7s
  • Wind
    20mph, 25mph gusts
  • Sea Temp 51°f
  • Aire Temp 51°f
  • Sea Pressure 1005.7mb
  • Neah Bay, - 6nm North Of Cape Flattery, Wa     (traffic Separation Lighted Buoy)
  • Neah Bay, - 6nm North Of Cape Flattery, Wa     (traffic Separation Lighted Buoy)

More Historic Weather Station data

Upgrade to MSW Pro to gain access to the past 30 days of data for over 8000 Wavebouys and Weather Stations around the globe.

Join Pro

Comparision Forecast

View Surf forecast
   
vie 12/19 1:50 7.5ft 11s 7s 20 25 mph 1005.7mb 51f 51f
1:20  -   -   -  22 29 mph 1005.2mb 51f 52f
12:50 8.5ft 11s 7s 22 29 mph 1004.8mb 50f 52f
12:20  -   -   -  25 29 mph 1004.5mb 50f 52f
jue 12/18 11:50 10ft 10s 8s 20 25 mph 1004.1mb 50f 51f
11:20  -   -   -  22 27 mph 1004mb 50f 51f
10:50 9.5ft 10s 8s 16 20 mph 1003.9mb 50f 51f
10:20  -   -   -  18 20 mph 1003.6mb 50f 51f
9:50 11ft 10s 8s 16 20 mph 1003.6mb 50f 50f
9:20  -   -   -  13 18 mph 1003.5mb 50f 50f
8:50 11ft 9s 8s 11 16 mph 1003.2mb 50f 50f
8:20  -   -   -  11 13 mph 1002.9mb 50f 50f
7:50 9ft 9s 7s 9 13 mph 1002.4mb 50f 50f
7:20  -   -   -  13 18 mph 1002.6mb 50f 49f
6:50 7.5ft 9s 7s 20 27 mph 1002mb 50f 48f
6:20  -   -   -  25 29 mph 1001.2mb 51f 49f
5:50 6.5ft 10s 6s 27 31 mph 1001.2mb 52f 49f
5:20  -   -   -  27 31 mph 1001.9mb 53f 49f
4:50 6ft 11s 6s 25 29 mph 1002.6mb 53f 49f
4:20  -   -   -  25 29 mph 1003.1mb 53f 49f
3:50 5ft 12s 5s 25 29 mph 1003.4mb 53f 49f
3:20  -   -   -  25 29 mph 1003.6mb 53f 49f
2:50 5ft 11s 5s 25 31 mph 1004.1mb 53f 49f
2:20  -   -   -  25 29 mph 1004.6mb 53f 49f
1:50 5ft 14s 5s 29 34 mph 1004.8mb 53f 49f
1:20  -   -   -  29 36 mph 1005.2mb 53f 48f
12:50 5ft 13s 5s 29 36 mph 1005.6mb 53f 48f
12:20  -   -   -  25 29 mph 1006.3mb 53f 49f
11:50 5.5ft 13s 5s 25 29 mph 1007.1mb 53f 49f
11:20  -   -   -  25 31 mph 1007.6mb 53f 48f
10:50 5ft 11s 5s 27 31 mph 1007.8mb 53f 48f
10:20  -   -   -  27 31 mph 1008.5mb 53f 48f
9:50 5.5ft 13s 6s 25 29 mph 1009.2mb 53f 48f
9:20  -   -   -  25 29 mph 1009.5mb 53f 48f
8:50 5ft 14s 6s 22 27 mph 1009.8mb 53f 48f
8:20  -   -   -  20 25 mph 1010.2mb 53f 48f
7:50 5.5ft 13s 7s 20 25 mph 1010.3mb 53f 48f
7:20  -   -   -  20 25 mph 1010.5mb 53f 48f
6:50 5.5ft 13s 7s 20 22 mph 1010.6mb 53f 48f
6:20  -   -   -  18 20 mph 1011.1mb 53f 48f
5:50 6ft 14s 8s 16 20 mph 1011.3mb 53f 48f
5:20  -   -   -  16 18 mph 1011.6mb 53f 48f
4:50 6ft 11s 8s 13 18 mph 1012mb 53f 48f
4:20  -   -   -  13 20 mph 1011.7mb 53f 48f
3:50 6.5ft 12s 9s 13 18 mph 1011.8mb 51f 49f
3:20  -   -   -  13 18 mph 1011.9mb 50f 48f
2:50 6ft 11s 9s 13 16 mph 1011.9mb 50f 48f
2:20  -   -   -  9 13 mph 1012.1mb 50f 48f
1:50 6.5ft 14s 9s 7 9 mph 1012.2mb 50f 48f
1:20  -   -   -  7 9 mph 1012.2mb 50f 48f
12:50 7ft 11s 9s 7 9 mph 1012.4mb 50f 48f
12:20  -   -   -  7 11 mph 1012.3mb 50f 48f
mié 12/17 11:50 7.5ft 13s 9s 11 13 mph 1012.2mb 50f 47f
11:20  -   -   -  11 13 mph 1012.3mb 50f 48f
10:50 7ft 14s 9s 11 13 mph 1012.1mb 51f 48f
10:20  -   -   -  11 16 mph 1011.9mb 51f 48f
9:50 7.5ft 14s 8s 11 16 mph 1011.7mb 51f 48f
9:20  -   -   -  11 16 mph 1011.9mb 51f 48f
8:50 7ft 14s 8s 13 16 mph 1011.9mb 51f 48f
8:20  -   -   -  13 18 mph 1011.8mb 51f 48f
7:50 7ft 13s 9s 13 18 mph 1011.7mb 51f 48f
7:20  -   -   -  16 18 mph 1011.7mb 51f 48f
6:50 8ft 12s 10s 16 20 mph 1011.5mb 51f 48f
6:20  -   -   -  16 20 mph 1011.3mb 51f 48f
5:50 8.5ft 13s 10s 16 20 mph 1011mb 51f 47f
5:20  -   -   -  13 16 mph 1011.2mb 51f 47f
4:50 9ft 13s 10s 13 18 mph 1011mb 51f 47f
4:20  -   -   -  13 16 mph 1010.8mb 53f 47f
3:50 8ft 12s 10s 11 16 mph 1010.5mb 53f 47f
3:20  -   -   -  13 18 mph 1010.2mb 53f 47f
2:50 8ft 14s 10s 13 18 mph 1010.1mb 53f 47f
2:20  -   -   -  16 20 mph 1009.7mb 53f 47f
1:50 8ft 15s 10s 13 18 mph 1009.7mb 53f 46f
1:20  -   -   -  16 18 mph 1009.8mb 53f 46f
12:50 8ft 14s 10s 13 18 mph 1009.9mb 53f 46f
12:20  -   -   -  13 18 mph 1009.8mb 53f 46f
11:50 8.5ft 11s 10s 11 18 mph 1009.8mb 53f 47f
11:20  -   -   -  11 16 mph 1009.8mb 53f 48f
10:50 9ft 11s 10s 11 18 mph 1009.9mb 53f 47f
10:20  -   -   -  11 16 mph 1009.8mb 53f 47f
9:50 8.5ft 11s 9s 11 16 mph 1009.5mb 53f 47f
9:20  -   -   -  13 18 mph 1009.2mb 53f 46f
8:50 10ft 15s 10s 16 18 mph 1008.9mb 53f 46f
8:20  -   -   -  16 20 mph 1008.6mb 53f 46f
7:50 9ft 15s 9s 13 20 mph 1008.5mb 53f 47f
7:20  -   -   -  13 18 mph 1008.5mb 53f 47f
6:50 8ft 12s 9s 13 18 mph 1008.6mb 53f 46f
6:20  -   -   -  16 18 mph 1008.6mb 53f 46f
5:50 8ft 13s 9s 16 20 mph 1008.5mb 53f 47f
5:20  -   -   -  13 18 mph 1008.4mb 53f 47f
4:50 7ft 12s 8s 16 18 mph 1008.4mb 52f 47f
4:20  -   -   -  13 18 mph 1008.3mb 52f 47f
3:50 6.5ft 12s 8s 16 20 mph 1008.1mb 52f 47f
3:20  -   -   -  16 18 mph 1008.3mb 52f 47f
2:50 7ft 12s 8s 16 18 mph 1008.4mb 52f 47f
2:20  -   -   -  13 18 mph 1008.5mb 52f 47f
1:50 7ft 12s 8s 16 20 mph 1008.6mb 51f 48f
1:20  -   -   -  16 22 mph 1008.6mb 50f 47f
12:50 7.5ft 11s 9s 18 20 mph 1008.7mb 51f 47f
12:20  -   -   -  18 22 mph 1008.8mb 51f 48f
mar 12/16 11:50 7ft 11s 8s 20 22 mph 1008.7mb 51f 48f
11:20  -   -   -  20 22 mph 1008.6mb 51f 48f
10:50 7ft 11s 8s 18 22 mph 1008.7mb 51f 48f
10:20  -   -   -  18 22 mph 1008.6mb 50f 48f
9:50 8ft 12s 8s 20 22 mph 1008.6mb 50f 48f
9:20  -   -   -  20 22 mph 1008.7mb 50f 48f
8:50 8ft 11s 8s 18 22 mph 1008.8mb 50f 48f
8:20  -   -   -  20 25 mph 1008.8mb 50f 48f
7:50 8ft 12s 8s 18 25 mph 1008.9mb 50f 48f
7:20  -   -   -  20 22 mph 1009mb 50f 48f
6:50 8.5ft 11s 8s 18 22 mph 1008.9mb 50f 48f
6:20  -   -   -  20 25 mph 1008.9mb 50f 48f
5:50 8ft 13s 9s 20 22 mph 1009mb 50f 48f
5:20  -   -   -  18 22 mph 1009mb 51f 48f
4:50 6.5ft 12s 7s 20 25 mph 1008.8mb 51f 48f
4:20  -   -   -  22 27 mph 1008.6mb 51f 49f
3:50 7ft 12s 8s 18 20 mph 1008.8mb 51f 48f
3:20  -   -   -  18 22 mph 1008.7mb 51f 48f
2:50 7ft 13s 8s 18 22 mph 1008.6mb 51f 48f
2:20  -   -   -  16 20 mph 1008.5mb 51f 48f
1:50 7ft 13s 8s 16 25 mph 1008.4mb 51f 48f
1:20  -   -   -  16 20 mph 1008.5mb 52f 47f
12:50 7ft 13s 8s 18 22 mph 1008.4mb 52f 47f
12:20  -   -   -  16 18 mph 1008.8mb 52f 46f
11:50 7ft 13s 8s 13 18 mph 1008.9mb 52f 47f
11:20  -   -   -  16 20 mph 1008.9mb 52f 47f
10:50 7.5ft 14s 8s 18 22 mph 1008.9mb 52f 47f
10:20  -   -   -  18 22 mph 1008.8mb 52f 47f
9:50 8ft 12s 8s 16 18 mph 1008.8mb 52f 48f
9:20  -   -   -  16 20 mph 1008.5mb 52f 48f
8:50 8ft 14s 8s 16 20 mph 1008.4mb 52f 48f
8:20  -   -   -  16 20 mph 1008.2mb 52f 48f
7:50 8ft 12s 9s 18 20 mph 1008.1mb 52f 47f
7:20  -   -   -  18 22 mph 1008mb 52f 47f
6:50 9ft 14s 9s 18 25 mph 1008.2mb 52f 47f
6:20  -   -   -  18 22 mph 1008.1mb 52f 46f
5:50 8.5ft 13s 8s 18 22 mph 1008.2mb 52f 46f
5:20  -   -   -  18 22 mph 1008.1mb 52f 46f
4:50 10ft 14s 9s 20 25 mph 1008.1mb 52f 46f
4:20  -   -   -  20 27 mph 1008.2mb 52f 46f
3:50 9ft 11s 9s 18 22 mph 1008.4mb 52f 46f
3:20  -   -   -  20 25 mph 1008.4mb 52f 47f
2:50 9.5ft 14s 10s 18 22 mph 1008.6mb 52f 46f
2:20  -   -   -  20 25 mph 1008.4mb 52f 47f
1:50 10ft 13s 11s 16 20 mph 1008.8mb 52f 47f
1:20  -   -   -  16 20 mph 1008.7mb 52f 46f
12:50 10.5ft 14s 11s 16 20 mph 1008.7mb 52f 47f
12:20  -   -   -  13 18 mph 1009.1mb 52f 47f
lun 12/15 11:50 10ft 13s 11s 13 18 mph 1009.1mb 52f 47f
11:20  -   -   -  13 18 mph 1009.3mb 52f 47f
10:50 11ft 14s 11s 11 13 mph 1009.1mb 52f 47f
10:20  -   -   -  13 18 mph 1009mb 52f 47f
9:50 10ft 15s 11s 11 18 mph 1009mb 52f 48f
9:20  -   -   -  13 20 mph 1008.9mb 52f 47f
8:50 11.5ft 15s 11s 13 18 mph 1008.9mb 52f 47f
8:20  -   -   -  13 18 mph 1008.9mb 52f 48f
7:50 10ft 14s 10s 16 20 mph 1008.9mb 52f 48f
7:20  -   -   -  16 20 mph 1009.1mb 52f 48f
6:50 11.5ft 15s 11s 13 18 mph 1009.3mb 52f 47f
6:20  -   -   -  16 20 mph 1009.4mb 52f 47f
5:50 11ft 15s 11s 18 20 mph 1009.7mb 52f 47f
5:20  -   -   -  18 22 mph 1009.8mb 52f 47f
4:50 10ft 15s 10s 13 18 mph 1010mb 52f 46f
4:20  -   -   -  16 20 mph 1010mb 52f 47f
3:50 9.5ft 16s 10s 16 22 mph 1010.1mb 52f 47f
3:20  -   -   -  16 22 mph 1010.1mb 52f 47f
2:50 9.5ft 15s 9s 16 20 mph 1010.2mb 51f 47f
2:20  -   -   -  18 25 mph 1010.2mb 51f 47f
1:50 10.5ft 16s 9s 18 25 mph 1010.4mb 51f 47f
1:20  -   -   -  20 27 mph 1010.5mb 51f 47f
12:50 10.5ft 16s 8s 20 27 mph 1010.9mb 51f 47f
12:20  -   -   -  22 27 mph 1010.9mb 51f 48f
11:50 10ft 17s 8s 22 29 mph 1011.1mb 51f 49f
11:20  -   -   -  18 25 mph 1011.3mb 51f 49f
10:50 9.5ft 17s 8s 25 29 mph 1011.1mb 51f 50f